Time;durP1;ratioP1;P1;durP2;ratioP2;P2;SDS_P1;SDS_P2;PMS_P1;PMS_P2;Temp;Humidity;BMP_temperature;BMP_pressure;BME280_temperature;BME280_humidity;BME280_pressure;Samples;Min_cycle;Max_cycle;Signal;HPM_P1;HPM_P2
2022/06/22 00:00:19;;;;;;;0.80;0.65;;;15.60;99.90;;;;;;4876264;29;20236;-70
2022/06/22 00:02:48;;;;;;;1.55;0.75;;;15.60;99.90;;;;;;4875637;29;20507;-70
2022/06/22 00:05:22;;;;;;;1.02;0.82;;;15.60;99.90;;;;;;4860461;29;20471;-69
2022/06/22 00:07:54;;;;;;;0.70;0.70;;;15.60;99.90;;;;;;4893390;29;20056;-70
2022/06/22 00:10:23;;;;;;;1.27;0.85;;;15.50;99.90;;;;;;4880237;29;20453;-70
2022/06/22 00:12:51;;;;;;;1.00;0.90;;;15.40;99.90;;;;;;4864215;29;20056;-70
2022/06/22 00:15:36;;;;;;;1.40;1.05;;;15.30;99.90;;;;;;4879337;29;20062;-70
2022/06/22 00:18:18;;;;;;;1.30;0.90;;;15.20;99.90;;;;;;4911644;29;20115;-70
2022/06/22 00:20:52;;;;;;;1.48;1.10;;;15.20;99.90;;;;;;4895100;29;20503;-70
2022/06/22 00:23:30;;;;;;;1.15;0.90;;;15.20;99.90;;;;;;4895136;29;20048;-70
2022/06/22 00:26:23;;;;;;;1.60;0.73;;;15.20;99.90;;;;;;4911863;29;20575;-70
2022/06/22 00:29:16;;;;;;;1.15;0.88;;;15.10;99.90;;;;;;4895811;29;20505;-70
2022/06/22 00:31:50;;;;;;;1.15;0.77;;;15.00;99.90;;;;;;4894995;29;20052;-70
2022/06/22 00:34:27;;;;;;;1.20;0.80;;;15.00;99.90;;;;;;4910651;29;20048;-70
2022/06/22 00:37:12;;;;;;;0.85;0.70;;;15.00;99.90;;;;;;4880040;29;20143;-70
2022/06/22 00:39:54;;;;;;;1.45;0.88;;;15.10;99.90;;;;;;4894156;29;20152;-70
2022/06/22 00:42:31;;;;;;;1.05;0.85;;;15.00;99.90;;;;;;4880211;29;20087;-71
2022/06/22 00:45:11;;;;;;;1.25;0.73;;;14.90;99.90;;;;;;4893795;29;20348;-71
2022/06/22 00:47:46;;;;;;;1.02;0.70;;;14.90;99.90;;;;;;4879657;29;20624;-70
2022/06/22 00:50:14;;;;;;;1.17;0.70;;;14.90;99.90;;;;;;4879264;29;20123;-70
2022/06/22 00:52:49;;;;;;;1.00;0.82;;;14.80;99.90;;;;;;4870346;29;20496;-70
2022/06/22 00:55:35;;;;;;;0.65;0.65;;;14.80;99.90;;;;;;4875993;29;20164;-70
2022/06/22 00:58:04;;;;;;;1.02;0.85;;;14.80;99.90;;;;;;4911479;29;20088;-70
2022/06/22 01:00:33;;;;;;;1.45;1.00;;;14.80;99.90;;;;;;4893805;29;20052;-70
2022/06/22 01:03:14;;;;;;;1.33;0.80;;;14.80;99.90;;;;;;4875048;29;20139;-70
2022/06/22 01:05:46;;;;;;;1.17;1.08;;;14.70;99.90;;;;;;4877012;29;20071;-70
2022/06/22 01:08:34;;;;;;;0.87;0.80;;;14.60;99.90;;;;;;4871025;29;20469;-69
2022/06/22 01:14:06;;;;;;;1.02;0.90;;;14.60;99.90;;;;;;4892603;29;20087;-70
2022/06/22 01:16:36;;;;;;;0.80;0.80;;;14.50;99.90;;;;;;4890655;29;20051;-70
2022/06/22 01:19:35;;;;;;;1.17;0.90;;;14.40;99.90;;;;;;4874311;29;20123;-70
2022/06/22 01:22:13;;;;;;;1.55;1.15;;;14.40;99.90;;;;;;4878297;29;20135;-70
2022/06/22 01:25:13;;;;;;;1.02;0.93;;;14.30;99.90;;;;;;4885474;29;20048;-70
2022/06/22 01:27:41;;;;;;;1.92;1.20;;;14.30;99.90;;;;;;4905072;29;20146;-70
2022/06/22 01:30:41;;;;;;;1.40;1.10;;;14.30;99.90;;;;;;4873962;29;20135;-70
2022/06/22 01:33:23;;;;;;;1.65;1.02;;;14.10;99.90;;;;;;4850525;29;20500;-70
2022/06/22 01:35:55;;;;;;;1.65;1.15;;;14.10;99.90;;;;;;4863433;29;20101;-70
2022/06/22 01:38:24;;;;;;;2.60;1.08;;;14.10;99.90;;;;;;4861840;29;20095;-70
2022/06/22 01:40:52;;;;;;;0.82;0.75;;;14.20;99.90;;;;;;4894518;29;20592;-69
2022/06/22 01:43:30;;;;;;;1.83;1.25;;;14.20;99.90;;;;;;4918119;29;20083;-70
2022/06/22 01:46:31;;;;;;;2.33;0.90;;;14.20;99.90;;;;;;4876938;29;20143;-69
2022/06/22 01:49:02;;;;;;;1.60;1.40;;;14.20;99.90;;;;;;4891051;29;20048;-69
2022/06/22 01:51:33;;;;;;;2.17;1.30;;;14.10;99.90;;;;;;4877050;29;20130;-69
2022/06/22 01:54:19;;;;;;;1.48;1.00;;;14.10;99.90;;;;;;4891394;29;20127;-69
2022/06/22 01:56:49;;;;;;;1.17;0.90;;;14.10;99.90;;;;;;4891890;29;20052;-69
2022/06/22 01:59:19;;;;;;;1.98;0.85;;;14.10;99.90;;;;;;4908390;29;20052;-69
2022/06/22 02:02:08;;;;;;;1.10;0.98;;;14.10;99.90;;;;;;4891148;29;20076;-70
2022/06/22 02:04:43;;;;;;;1.33;1.00;;;14.00;99.90;;;;;;4890133;29;20059;-69
2022/06/22 02:07:45;;;;;;;1.70;1.10;;;14.00;99.90;;;;;;4877225;29;20135;-70
2022/06/22 02:10:26;;;;;;;2.35;1.08;;;13.90;99.90;;;;;;4892987;29;20087;-69
2022/06/22 02:13:00;;;;;;;1.13;1.02;;;13.80;99.90;;;;;;4890577;29;20060;-70
2022/06/22 02:15:38;;;;;;;1.40;1.17;;;13.80;99.90;;;;;;4891173;29;20633;-69
2022/06/22 02:18:13;;;;;;;1.83;1.17;;;13.80;99.90;;;;;;4877142;29;20060;-69
2022/06/22 02:20:40;;;;;;;1.30;0.95;;;13.80;99.90;;;;;;4875903;29;20664;-69
2022/06/22 02:23:16;;;;;;;1.42;1.00;;;13.90;99.90;;;;;;4875582;29;20196;-69
2022/06/22 02:25:48;;;;;;;1.55;1.20;;;13.80;99.90;;;;;;4876857;29;20085;-69
2022/06/22 02:28:15;;;;;;;1.38;1.20;;;13.80;99.90;;;;;;4891511;29;20123;-69
2022/06/22 02:30:42;;;;;;;1.13;0.90;;;13.70;99.90;;;;;;4890490;29;20592;-69
2022/06/22 02:33:09;;;;;;;1.77;1.20;;;13.70;99.90;;;;;;4875505;29;20151;-69
2022/06/22 02:35:37;;;;;;;1.33;1.10;;;13.70;99.90;;;;;;4907388;29;20112;-69
2022/06/22 02:38:05;;;;;;;2.08;1.27;;;13.60;99.90;;;;;;4891702;29;20079;-69
2022/06/22 02:44:29;;;;;;;2.20;1.10;;;13.60;99.90;;;;;;4875444;29;20087;-69
2022/06/22 02:46:11;;;;;;;1.70;1.10;;;13.50;99.90;;;;;;4893163;29;20052;-69
2022/06/22 02:48:39;;;;;;;0.98;0.82;;;13.60;99.90;;;;;;4890461;29;20088;-69
2022/06/22 02:51:12;;;;;;;1.17;1.08;;;13.50;99.90;;;;;;4876011;29;20459;-70
2022/06/22 02:53:39;;;;;;;1.80;1.58;;;13.50;99.90;;;;;;4875766;29;20119;-70
2022/06/22 02:56:30;;;;;;;1.60;1.33;;;13.40;99.90;;;;;;4890913;29;20115;-70
2022/06/22 02:58:57;;;;;;;1.52;1.17;;;13.40;99.90;;;;;;4891330;29;20090;-69
2022/06/22 03:01:26;;;;;;;2.55;1.38;;;13.20;99.90;;;;;;4910082;29;20143;-69
2022/06/22 03:03:55;;;;;;;1.88;1.48;;;13.10;99.90;;;;;;4875962;29;20092;-69
2022/06/22 03:06:30;;;;;;;2.90;1.70;;;13.10;99.90;;;;;;4877347;29;20082;-69
2022/06/22 03:09:03;;;;;;;2.38;1.88;;;13.10;99.90;;;;;;4877801;29;20133;-70
2022/06/22 03:11:36;;;;;;;1.60;1.30;;;13.10;99.90;;;;;;4892436;29;20147;-70
2022/06/22 03:14:21;;;;;;;1.70;1.20;;;13.20;99.90;;;;;;4876141;29;20294;-70
2022/06/22 03:16:56;;;;;;;1.38;1.17;;;13.20;99.90;;;;;;4904063;29;20170;-69
2022/06/22 03:19:39;;;;;;;1.42;1.00;;;13.20;99.90;;;;;;4876683;29;20187;-69
2022/06/22 03:22:19;;;;;;;1.40;1.20;;;13.30;99.90;;;;;;4909749;29;20052;-69
2022/06/22 03:24:56;;;;;;;1.30;1.20;;;13.20;99.90;;;;;;4892261;29;20605;-70
2022/06/22 03:27:25;;;;;;;1.70;1.27;;;13.10;99.90;;;;;;4892609;29;20091;-70
2022/06/22 03:29:54;;;;;;;1.77;1.20;;;13.10;99.90;;;;;;4876767;29;20090;-69
2022/06/22 03:32:34;;;;;;;1.75;1.45;;;13.10;99.90;;;;;;4872560;29;20062;-69
2022/06/22 03:35:15;;;;;;;1.98;1.50;;;13.00;99.90;;;;;;4873555;29;20048;-69
2022/06/22 03:37:49;;;;;;;2.13;1.23;;;12.90;99.90;;;;;;4889103;29;20088;-69
2022/06/22 03:40:20;;;;;;;1.20;1.10;;;12.90;99.90;;;;;;4889486;29;20060;-69
2022/06/22 03:42:49;;;;;;;1.30;1.15;;;12.90;99.90;;;;;;4888803;29;20184;-70
2022/06/22 03:45:26;;;;;;;1.38;1.17;;;12.90;99.90;;;;;;4888992;29;20131;-70
2022/06/22 03:48:06;;;;;;;1.20;1.10;;;12.90;99.90;;;;;;4888515;29;20088;-70
2022/06/22 03:50:39;;;;;;;1.02;0.93;;;12.90;99.90;;;;;;4888490;29;20151;-70
2022/06/22 03:53:09;;;;;;;;;;;12.90;99.90;;;;;;4873891;29;20048;-70
2022/06/22 03:55:38;;;;;;;1.60;1.08;;;12.90;99.90;;;;;;4890096;29;20365;-70
2022/06/22 03:58:06;;;;;;;2.30;1.17;;;12.80;99.90;;;;;;4890184;29;20517;-70
2022/06/22 04:00:33;;;;;;;1.13;0.98;;;12.80;99.90;;;;;;4888864;29;20053;-70
2022/06/22 04:03:01;;;;;;;1.23;1.10;;;12.90;99.90;;;;;;4872558;29;20107;-70
2022/06/22 04:05:31;;;;;;;0.90;0.85;;;12.90;99.90;;;;;;4887800;29;20095;-70
2022/06/22 04:07:58;;;;;;;1.50;1.10;;;12.90;99.90;;;;;;4873936;29;20159;-70
2022/06/22 04:10:39;;;;;;;1.83;1.20;;;12.90;99.90;;;;;;4873222;29;20118;-70
2022/06/22 04:13:09;;;;;;;1.80;1.42;;;12.90;99.90;;;;;;4888711;29;20052;-70
2022/06/22 04:15:44;;;;;;;1.45;1.08;;;12.80;99.90;;;;;;4888462;29;20087;-70
2022/06/22 04:18:23;;;;;;;1.60;1.17;;;12.80;99.90;;;;;;4888770;29;20095;-70
2022/06/22 04:20:52;;;;;;;1.05;0.95;;;12.80;99.90;;;;;;4889178;29;20123;-70
2022/06/22 04:23:26;;;;;;;1.27;1.15;;;12.80;99.90;;;;;;4873416;29;20114;-70
2022/06/22 04:25:56;;;;;;;2.08;1.30;;;12.80;99.90;;;;;;4888491;29;20124;-70
2022/06/22 04:28:23;;;;;;;1.67;1.25;;;12.70;99.90;;;;;;4873809;29;20139;-70
2022/06/22 04:30:50;;;;;;;1.23;1.08;;;12.70;99.90;;;;;;4872358;29;20132;-70
2022/06/22 04:33:27;;;;;;;1.48;1.27;;;12.80;99.90;;;;;;4890763;29;20356;-70
2022/06/22 04:36:00;;;;;;;1.35;1.02;;;12.80;99.90;;;;;;4892122;29;20079;-69
2022/06/22 04:38:32;;;;;;;1.85;1.40;;;12.80;99.90;;;;;;4880923;29;20542;-70
2022/06/22 04:41:27;;;;;;;2.28;1.60;;;12.80;99.90;;;;;;4895375;29;20131;-69
2022/06/22 04:44:01;;;;;;;1.65;1.40;;;12.80;99.90;;;;;;4912387;29;20080;-70
2022/06/22 04:46:33;;;;;;;1.95;1.35;;;12.80;99.90;;;;;;4894786;29;20048;-70
2022/06/22 04:49:18;;;;;;;1.58;1.30;;;12.90;99.90;;;;;;4875722;29;20127;-70
2022/06/22 04:51:48;;;;;;;2.25;1.17;;;12.90;99.90;;;;;;4878630;29;20201;-70
2022/06/22 04:54:26;;;;;;;1.73;1.23;;;12.90;99.90;;;;;;4889724;29;20048;-69
2022/06/22 04:56:54;;;;;;;1.50;1.00;;;13.00;99.90;;;;;;4893447;29;20579;-70
2022/06/22 04:59:21;;;;;;;1.63;1.42;;;13.00;99.90;;;;;;4891889;29;20056;-72
2022/06/22 05:01:54;;;;;;;1.90;1.15;;;13.10;99.90;;;;;;4890652;29;20084;-69
2022/06/22 05:04:29;;;;;;;1.35;1.00;;;13.20;99.90;;;;;;4864481;29;20079;-70
2022/06/22 05:07:05;;;;;;;1.40;1.15;;;13.20;99.90;;;;;;4883848;29;20088;-70
2022/06/22 05:09:40;;;;;;;1.60;1.40;;;13.30;99.90;;;;;;4897866;29;20641;-70
2022/06/22 05:12:16;;;;;;;1.92;1.33;;;13.20;99.90;;;;;;4857464;29;20078;-71
2022/06/22 05:14:42;;;;;;;1.35;1.02;;;13.30;99.90;;;;;;4864295;29;20045;-70
2022/06/22 05:17:20;;;;;;;1.88;1.42;;;13.40;99.90;;;;;;4869119;29;20132;-70
2022/06/22 05:19:50;;;;;;;2.03;1.30;;;13.40;99.90;;;;;;4880483;29;20128;-69
2022/06/22 05:22:18;;;;;;;1.80;1.40;;;13.50;99.90;;;;;;4895220;29;20142;-69
2022/06/22 05:24:47;;;;;;;1.33;1.17;;;13.50;99.90;;;;;;4880859;29;20047;-70
2022/06/22 05:27:19;;;;;;;1.17;1.08;;;13.60;99.90;;;;;;4891058;29;20491;-69
2022/06/22 05:29:49;;;;;;;1.65;1.23;;;13.60;99.90;;;;;;4890925;29;20518;-69
2022/06/22 05:32:18;;;;;;;1.65;1.20;;;13.70;99.90;;;;;;4876738;29;20151;-69
2022/06/22 05:34:46;;;;;;;1.63;1.00;;;13.70;99.90;;;;;;4893139;29;20052;-70
2022/06/22 05:37:20;;;;;;;1.52;1.13;;;13.70;99.90;;;;;;4892134;29;20139;-69
2022/06/22 05:39:47;;;;;;;1.45;1.25;;;13.80;99.90;;;;;;4891057;29;20080;-69
2022/06/22 05:42:14;;;;;;;1.85;1.30;;;13.80;99.90;;;;;;4903514;29;20135;-70
2022/06/22 05:44:41;;;;;;;1.60;1.25;;;13.90;99.90;;;;;;4893248;29;20047;-69
2022/06/22 05:47:15;;;;;;;2.17;1.40;;;13.90;99.90;;;;;;4907557;29;20080;-70
2022/06/22 05:49:50;;;;;;;2.03;1.80;;;14.00;99.90;;;;;;4870197;29;20632;-70
2022/06/22 05:52:31;;;;;;;1.90;1.40;;;14.10;99.90;;;;;;4875028;29;20051;-70
2022/06/22 05:54:59;;;;;;;1.85;1.38;;;14.10;99.90;;;;;;4885095;29;20127;-69
2022/06/22 05:57:52;;;;;;;1.58;1.23;;;14.20;99.90;;;;;;4878419;29;20044;-70
2022/06/22 06:00:27;;;;;;;1.87;1.30;;;14.30;99.90;;;;;;4874599;29;20476;-69
2022/06/22 06:03:16;;;;;;;1.40;1.17;;;14.40;99.90;;;;;;4871545;29;20060;-70
2022/06/22 06:05:49;;;;;;;1.95;1.75;;;14.50;99.90;;;;;;4879895;29;20053;-69
2022/06/22 06:08:19;;;;;;;;;;;14.60;99.90;;;;;;4882457;29;20075;-69
2022/06/22 06:10:46;;;;;;;1.45;1.27;;;14.70;99.90;;;;;;4901056;29;19927;-69
2022/06/22 06:13:18;;;;;;;2.00;1.60;;;14.90;99.90;;;;;;4880312;29;20131;-69
2022/06/22 06:15:46;;;;;;;3.40;2.30;;;14.90;99.90;;;;;;4909469;29;20080;-71
2022/06/22 06:18:15;;;;;;;2.53;2.28;;;15.10;99.90;;;;;;4873613;29;20119;-69
2022/06/22 06:20:46;;;;;;;3.20;2.13;;;15.30;99.90;;;;;;4869180;29;20075;-70
2022/06/22 06:23:35;;;;;;;3.00;2.38;;;15.40;99.90;;;;;;4879948;29;20084;-70
2022/06/22 06:28:56;;;;;;;2.03;1.60;;;15.70;99.90;;;;;;4907244;29;20094;-70
2022/06/22 06:31:25;;;;;;;2.33;1.98;;;15.80;99.90;;;;;;4896758;29;20064;-70
2022/06/22 06:33:52;;;;;;;2.30;1.83;;;15.90;99.90;;;;;;4906528;29;20708;-70
2022/06/22 06:36:26;;;;;;;2.55;2.20;;;16.00;99.90;;;;;;4866215;29;20131;-71
2022/06/22 06:39:00;;;;;;;3.60;3.00;;;16.10;99.90;;;;;;4877047;29;20499;-69
2022/06/22 06:41:40;;;;;;;3.55;2.95;;;16.20;99.90;;;;;;4881189;29;20456;-68
2022/06/22 06:44:18;;;;;;;3.45;2.33;;;16.30;99.90;;;;;;4891649;29;20059;-68
2022/06/22 06:46:53;;;;;;;3.28;2.28;;;16.40;99.90;;;;;;4890786;29;20152;-67
2022/06/22 06:49:59;;;;;;;2.88;2.22;;;16.40;99.90;;;;;;4889038;29;20431;-68
2022/06/22 06:52:51;;;;;;;3.35;2.22;;;16.60;99.90;;;;;;4888317;29;20230;-68
2022/06/22 06:55:40;;;;;;;3.35;2.33;;;16.60;99.90;;;;;;4901311;29;20147;-68
2022/06/22 06:58:23;;;;;;;2.30;1.92;;;16.70;99.90;;;;;;4892259;29;20065;-68
2022/06/22 07:00:49;;;;;;;2.60;2.20;;;16.80;99.90;;;;;;4854826;29;20087;-68
2022/06/22 07:03:24;;;;;;;2.92;2.00;;;16.80;99.90;;;;;;4864524;29;20080;-68
2022/06/22 07:05:51;;;;;;;3.05;2.20;;;16.90;99.90;;;;;;4873994;29;20056;-68
2022/06/22 07:08:19;;;;;;;3.03;2.40;;;17.00;99.90;;;;;;4873702;29;20063;-68
2022/06/22 07:11:15;;;;;;;3.20;2.42;;;17.00;99.90;;;;;;4894178;29;20452;-68
2022/06/22 07:13:49;;;;;;;3.47;2.20;;;17.00;99.90;;;;;;4873387;29;20068;-68
2022/06/22 07:16:18;;;;;;;;;;;17.10;99.90;;;;;;4876709;29;20048;-78
2022/06/22 07:19:17;;;;;;;3.53;2.17;;;17.20;99.90;;;;;;4888190;29;20002;-67
2022/06/22 07:21:59;;;;;;;2.78;2.47;;;17.20;99.90;;;;;;4887559;29;20083;-67
2022/06/22 07:24:31;;;;;;;2.80;1.80;;;17.40;99.90;;;;;;4891316;29;20044;-68
2022/06/22 07:27:29;;;;;;;2.42;1.83;;;17.40;99.90;;;;;;4889860;29;20807;-68
2022/06/22 07:30:35;;;;;;;2.85;2.15;;;17.50;99.90;;;;;;4892283;29;20086;-68
2022/06/22 07:33:33;;;;;;;2.45;2.00;;;17.50;99.90;;;;;;4872049;29;20092;-67
2022/06/22 07:36:12;;;;;;;1.58;1.42;;;17.60;99.90;;;;;;4887202;29;20086;-68
2022/06/22 07:38:54;;;;;;;2.40;1.90;;;17.70;99.90;;;;;;4908037;29;20179;-67
2022/06/22 07:41:22;;;;;;;2.50;2.00;;;17.80;99.90;;;;;;4906506;29;20409;-68
2022/06/22 07:43:56;;;;;;;2.55;2.35;;;17.80;99.90;;;;;;4872898;29;20076;-68
2022/06/22 07:46:35;;;;;;;3.83;2.85;;;17.80;99.90;;;;;;4881491;29;20080;-68
2022/06/22 07:49:09;;;;;;;2.10;1.90;;;17.90;99.90;;;;;;4905581;29;20123;-68
2022/06/22 07:51:39;;;;;;;3.50;2.25;;;17.90;99.90;;;;;;4890010;29;20536;-77
2022/06/22 07:54:10;;;;;;;2.10;1.65;;;18.00;99.90;;;;;;4871856;29;20484;-68
2022/06/22 07:56:46;;;;;;;2.38;2.05;;;18.10;99.90;;;;;;4902197;29;20087;-68
2022/06/22 07:59:17;;;;;;;2.72;2.28;;;18.20;99.90;;;;;;4878329;29;20131;-68
2022/06/22 08:01:44;;;;;;;3.28;2.17;;;18.20;99.90;;;;;;4886334;29;20147;-68
2022/06/22 08:04:22;;;;;;;2.20;1.83;;;18.30;99.90;;;;;;4883940;29;20079;-68
2022/06/22 08:07:02;;;;;;;2.15;1.70;;;18.40;99.90;;;;;;4873134;29;20063;-68
2022/06/22 08:09:44;;;;;;;1.52;1.40;;;18.50;99.90;;;;;;4876731;29;20060;-68
2022/06/22 08:12:19;;;;;;;2.47;1.80;;;18.60;99.90;;;;;;4877260;29;20086;-68
2022/06/22 08:14:47;;;;;;;2.08;1.65;;;18.70;99.90;;;;;;4895262;29;20098;-68
2022/06/22 08:17:38;;;;;;;2.08;1.35;;;18.70;99.90;;;;;;4895044;29;20083;-68
2022/06/22 08:20:05;;;;;;;3.05;1.70;;;18.80;99.90;;;;;;4896816;29;20139;-68
2022/06/22 08:22:32;;;;;;;2.33;1.70;;;19.00;99.90;;;;;;4894430;29;20135;-68
2022/06/22 08:24:59;;;;;;;2.00;1.25;;;19.00;99.90;;;;;;4876474;29;20116;-68
2022/06/22 08:27:26;;;;;;;1.38;1.00;;;19.10;99.90;;;;;;4891695;29;20298;-68
2022/06/22 08:29:53;;;;;;;1.40;0.98;;;19.20;99.90;;;;;;4894301;29;20191;-68
2022/06/22 08:32:38;;;;;;;1.60;1.10;;;19.30;99.90;;;;;;4893863;29;20092;-68
2022/06/22 08:35:23;;;;;;;0.77;0.68;;;19.40;99.90;;;;;;4911154;29;20048;-68
2022/06/22 08:38:10;;;;;;;1.25;0.80;;;19.50;99.90;;;;;;4911713;29;20574;-68
2022/06/22 08:40:45;;;;;;;1.15;0.90;;;19.60;99.90;;;;;;4894214;29;20486;-69
2022/06/22 08:43:38;;;;;;;1.50;1.15;;;19.80;99.90;;;;;;4894434;29;20051;-69
2022/06/22 08:46:17;;;;;;;1.70;1.17;;;19.90;99.90;;;;;;4896041;29;20052;-69
2022/06/22 08:49:19;;;;;;;1.23;0.90;;;20.00;99.90;;;;;;4893436;29;20052;-69
2022/06/22 08:52:05;;;;;;;1.42;0.98;;;20.10;99.90;;;;;;4896024;29;20147;-69
2022/06/22 08:55:02;;;;;;;1.25;0.93;;;20.30;99.90;;;;;;4910651;29;20094;-69
2022/06/22 08:57:48;;;;;;;1.33;0.95;;;20.40;99.90;;;;;;4911191;29;20080;-68
2022/06/22 09:00:50;;;;;;;1.77;1.30;;;20.50;99.90;;;;;;4876693;29;20465;-69
2022/06/22 09:03:40;;;;;;;1.25;1.00;;;20.60;99.90;;;;;;4871200;29;20763;-69
2022/06/22 09:06:26;;;;;;;1.52;0.95;;;20.50;99.90;;;;;;4910971;29;20048;-68
2022/06/22 09:08:52;;;;;;;2.13;0.90;;;20.60;99.90;;;;;;4909585;29;20498;-69
2022/06/22 09:11:29;;;;;;;2.03;1.20;;;20.70;99.90;;;;;;4907950;29;20207;-69
2022/06/22 09:14:20;;;;;;;2.60;1.27;;;20.80;99.90;;;;;;4890476;29;20277;-67
2022/06/22 09:16:47;;;;;;;1.80;0.90;;;20.90;99.90;;;;;;4910410;29;20116;-68
2022/06/22 09:19:23;;;;;;;1.08;0.90;;;20.90;99.70;;;;;;4910068;29;20412;-68
2022/06/22 09:22:11;;;;;;;0.80;0.65;;;20.90;99.90;;;;;;4894806;29;20083;-68
2022/06/22 09:24:49;;;;;;;2.13;1.00;;;20.90;98.70;;;;;;4906916;29;20492;-68
2022/06/22 09:27:40;;;;;;;1.08;0.90;;;21.00;98.80;;;;;;4891550;29;20900;-68
2022/06/22 09:30:31;;;;;;;1.20;0.70;;;21.20;98.30;;;;;;4893212;29;20056;-68
2022/06/22 09:33:17;;;;;;;0.68;0.55;;;21.20;97.40;;;;;;4909130;29;20145;-68
2022/06/22 09:35:52;;;;;;;0.60;0.60;;;21.30;96.50;;;;;;4909848;29;20155;-68
2022/06/22 09:38:27;;;;;;;0.80;0.60;;;21.40;96.30;;;;;;4910809;29;20052;-67
2022/06/22 09:41:32;;;;;;;0.82;0.50;;;21.50;93.90;;;;;;4878052;29;20139;-68
2022/06/22 09:44:09;;;;;;;0.80;0.60;;;21.70;93.50;;;;;;4885070;29;20159;-68
2022/06/22 09:47:10;;;;;;;0.50;0.50;;;21.70;92.70;;;;;;4906369;29;20112;-68
2022/06/22 09:49:46;;;;;;;0.65;0.50;;;21.70;91.60;;;;;;4907286;29;20564;-68
2022/06/22 09:52:26;;;;;;;0.40;0.40;;;21.70;92.50;;;;;;4910545;29;20052;-68
2022/06/22 09:58:19;;;;;;;0.70;0.40;;;22.00;93.40;;;;;;4909834;29;20134;-68
2022/06/22 10:00:50;;;;;;;0.60;0.47;;;22.20;94.50;;;;;;4895288;29;20143;-68
2022/06/22 10:03:22;;;;;;;0.50;0.40;;;22.20;95.00;;;;;;4892446;29;20078;-68
2022/06/22 10:06:05;;;;;;;1.17;0.70;;;22.30;94.40;;;;;;4910344;29;20090;-68
2022/06/22 10:08:43;;;;;;;1.37;0.60;;;22.40;95.30;;;;;;4910234;29;20056;-68
2022/06/22 10:11:28;;;;;;;0.57;0.57;;;22.50;94.40;;;;;;4877451;29;20159;-68
2022/06/22 10:14:06;;;;;;;1.60;0.98;;;22.50;95.00;;;;;;4909272;29;20143;-68
2022/06/22 10:16:57;;;;;;;0.95;0.63;;;22.50;92.80;;;;;;4892546;29;20088;-68
2022/06/22 10:19:48;;;;;;;0.82;0.70;;;22.60;92.70;;;;;;4908451;29;20054;-68
2022/06/22 10:22:27;;;;;;;0.98;0.75;;;22.70;93.00;;;;;;4907917;29;20044;-68
2022/06/22 10:25:16;;;;;;;1.17;0.80;;;22.90;93.20;;;;;;4890271;29;20231;-68
2022/06/22 10:28:05;;;;;;;1.23;0.68;;;22.90;92.70;;;;;;4906873;29;20143;-68
2022/06/22 10:30:57;;;;;;;0.73;0.55;;;22.90;92.60;;;;;;4892471;29;20433;-68
2022/06/22 10:33:36;;;;;;;0.80;0.47;;;23.00;91.90;;;;;;4870781;29;20052;-67
2022/06/22 10:36:33;;;;;;;1.17;0.63;;;23.10;91.50;;;;;;4869574;29;20057;-68
2022/06/22 10:39:24;;;;;;;1.05;0.82;;;23.10;91.20;;;;;;4871800;29;20103;-68
2022/06/22 10:45:13;;;;;;;;;;;23.30;90.30;;;;;;4870996;29;20103;-67
2022/06/22 10:48:04;;;;;;;0.57;0.47;;;23.50;88.50;;;;;;4869330;29;20405;-68
2022/06/22 10:50:49;;;;;;;0.47;0.43;;;23.60;86.80;;;;;;4871270;29;20131;-68
2022/06/22 10:54:08;;;;;;;0.95;0.50;;;23.70;86.20;;;;;;4871158;29;20108;-68
2022/06/22 10:56:45;;;;;;;1.48;0.70;;;23.90;84.30;;;;;;4866776;29;20092;-68
2022/06/22 10:59:53;;;;;;;0.73;0.45;;;23.90;84.70;;;;;;4854649;29;20168;-68
2022/06/22 11:03:04;;;;;;;0.75;0.50;;;24.00;83.50;;;;;;4869944;29;20128;-69
2022/06/22 11:05:34;;;;;;;1.15;0.50;;;24.10;82.30;;;;;;4869160;29;20438;-68
2022/06/22 11:08:11;;;;;;;0.80;0.70;;;24.10;81.80;;;;;;4870326;29;20103;-68
2022/06/22 11:11:00;;;;;;;0.52;0.50;;;24.20;80.80;;;;;;4869774;29;20084;-69
2022/06/22 11:14:12;;;;;;;1.23;0.75;;;24.30;82.10;;;;;;4869734;29;20679;-68
2022/06/22 11:17:09;;;;;;;1.23;0.60;;;24.40;84.10;;;;;;4840498;29;20141;-69
2022/06/22 11:19:56;;;;;;;1.90;0.60;;;24.50;85.10;;;;;;4868597;29;20088;-68
2022/06/22 11:22:47;;;;;;;2.72;0.88;;;24.50;84.40;;;;;;4870488;29;20056;-68
2022/06/22 11:30:48;;;;;;;1.13;0.63;;;24.60;85.10;;;;;;4866444;29;20053;-68
2022/06/22 11:31:25;;;;;;;1.25;0.75;;;25.00;87.30;;;;;;4872404;29;20107;-68
2022/06/22 11:34:04;;;;;;;1.00;0.52;;;25.20;86.40;;;;;;4889977;29;20048;-68
2022/06/22 11:36:49;;;;;;;1.10;0.60;;;25.40;86.20;;;;;;4889709;29;20080;-68
2022/06/22 11:40:12;;;;;;;1.98;1.00;;;25.70;85.60;;;;;;4899427;29;20051;-68
2022/06/22 11:42:45;;;;;;;;;;;25.80;86.20;;;;;;4858199;29;20079;-68
2022/06/22 11:48:56;;;;;;;2.13;1.35;;;26.10;86.40;;;;;;4890786;29;20048;-68
2022/06/22 11:51:34;;;;;;;1.17;0.90;;;26.00;84.60;;;;;;4874115;29;20056;-68
2022/06/22 11:54:19;;;;;;;1.15;0.93;;;26.40;83.90;;;;;;4906279;29;20156;-68
2022/06/22 11:56:55;;;;;;;2.05;1.40;;;26.40;83.00;;;;;;4876944;29;20139;-68
2022/06/22 11:59:56;;;;;;;0.90;0.85;;;26.60;82.20;;;;;;4895011;29;20515;-68
2022/06/22 12:02:52;;;;;;;1.65;1.08;;;26.70;80.90;;;;;;4891481;29;20076;-69
2022/06/22 12:05:28;;;;;;;1.17;0.90;;;26.90;81.50;;;;;;4880728;29;20467;-68
2022/06/22 12:08:16;;;;;;;2.25;1.50;;;27.20;80.70;;;;;;4894398;29;20055;-69
2022/06/22 12:10:47;;;;;;;2.03;1.60;;;27.40;79.60;;;;;;4879481;29;20084;-68
2022/06/22 12:13:36;;;;;;;1.40;1.20;;;27.50;79.90;;;;;;4904483;29;20095;-69
2022/06/22 12:16:21;;;;;;;1.10;1.00;;;27.50;79.70;;;;;;4880654;29;20057;-69
2022/06/22 12:19:13;;;;;;;1.15;0.80;;;27.80;79.00;;;;;;4872820;29;20076;-69
2022/06/22 12:22:01;;;;;;;0.70;0.70;;;28.00;77.70;;;;;;4862391;29;20052;-69
2022/06/22 12:24:44;;;;;;;1.35;0.77;;;28.30;78.10;;;;;;4892969;29;20307;-69
2022/06/22 12:27:20;;;;;;;0.85;0.65;;;29.00;76.60;;;;;;4890157;29;20084;-69
2022/06/22 12:29:47;;;;;;;0.73;0.65;;;29.30;77.40;;;;;;4861644;29;20158;-69
2022/06/22 12:32:37;;;;;;;0.60;0.60;;;29.40;74.90;;;;;;4909379;29;20110;-69
2022/06/22 12:35:36;;;;;;;0.75;0.52;;;29.40;74.10;;;;;;4894143;29;20524;-69
2022/06/22 12:38:26;;;;;;;0.63;0.60;;;29.60;73.00;;;;;;4893307;29;20090;-69
2022/06/22 12:41:10;;;;;;;0.43;0.43;;;30.00;73.30;;;;;;4894083;29;20052;-69
2022/06/22 12:44:05;;;;;;;0.73;0.60;;;30.10;70.90;;;;;;4878915;29;20052;-70
2022/06/22 12:46:47;;;;;;;0.50;0.50;;;30.20;71.30;;;;;;4894823;29;20086;-69
2022/06/22 12:49:43;;;;;;;1.30;0.60;;;30.20;70.60;;;;;;4901854;29;20536;-69
2022/06/22 12:52:15;;;;;;;1.05;0.70;;;30.30;70.60;;;;;;4891980;29;20090;-70
2022/06/22 12:54:48;;;;;;;0.55;0.50;;;30.50;69.70;;;;;;4892849;29;20142;-69
2022/06/22 12:57:18;;;;;;;1.45;0.80;;;30.50;70.00;;;;;;4846970;29;20607;-70
2022/06/22 13:00:03;;;;;;;0.70;0.63;;;30.60;68.90;;;;;;4870365;29;20084;-69
2022/06/22 13:02:30;;;;;;;1.13;0.70;;;30.70;68.00;;;;;;4886334;29;20136;-69
2022/06/22 13:05:02;;;;;;;0.57;0.50;;;31.00;68.70;;;;;;4854354;29;20052;-69
2022/06/22 13:07:29;;;;;;;1.23;0.75;;;31.40;66.40;;;;;;4880882;29;20099;-69
2022/06/22 13:09:55;;;;;;;0.50;0.50;;;31.40;66.40;;;;;;4869895;29;20138;-70
2022/06/22 13:12:44;;;;;;;0.63;0.50;;;31.60;66.10;;;;;;4906546;29;20374;-69
2022/06/22 13:15:27;;;;;;;0.50;0.50;;;31.80;65.60;;;;;;4890823;29;20102;-69
2022/06/22 13:17:56;;;;;;;0.77;0.70;;;32.30;65.10;;;;;;4870982;29;20175;-69
2022/06/22 13:20:48;;;;;;;0.80;0.60;;;32.70;65.10;;;;;;4890102;29;20282;-68
2022/06/22 13:23:33;;;;;;;0.93;0.73;;;32.70;63.70;;;;;;4899839;29;20541;-67
2022/06/22 13:26:06;;;;;;;1.42;0.85;;;32.70;62.70;;;;;;4895436;29;20086;-67
2022/06/22 13:29:09;;;;;;;1.50;1.20;;;33.00;63.40;;;;;;4886543;29;20107;-67
2022/06/22 13:31:39;;;;;;;1.23;1.13;;;33.20;62.90;;;;;;4889689;29;20515;-67
2022/06/22 13:34:06;;;;;;;0.70;0.70;;;33.20;61.40;;;;;;4868330;29;20123;-68
2022/06/22 13:36:35;;;;;;;0.95;0.90;;;33.50;61.70;;;;;;4883317;29;20083;-68
2022/06/22 13:39:14;;;;;;;0.98;0.60;;;33.60;61.20;;;;;;4881173;29;20217;-68
2022/06/22 13:41:43;;;;;;;1.13;0.80;;;33.40;60.40;;;;;;4905012;29;20427;-68
2022/06/22 13:44:13;;;;;;;1.50;0.75;;;33.40;61.30;;;;;;4905382;29;20276;-68
2022/06/22 13:47:05;;;;;;;1.23;1.00;;;33.50;61.40;;;;;;4903588;29;20143;-68
2022/06/22 13:50:18;;;;;;;1.13;0.90;;;33.40;60.20;;;;;;4900658;29;20191;-68
2022/06/22 13:52:50;;;;;;;0.80;0.80;;;33.40;60.60;;;;;;4888102;29;20103;-68
2022/06/22 13:55:59;;;;;;;2.05;0.75;;;33.80;60.00;;;;;;4886811;29;20056;-68
2022/06/22 13:58:29;;;;;;;0.98;0.80;;;33.90;60.10;;;;;;4874518;29;20105;-68
2022/06/22 14:01:11;;;;;;;1.13;0.70;;;33.90;60.00;;;;;;4868612;29;20130;-68
2022/06/22 14:03:41;;;;;;;1.00;0.60;;;33.90;59.60;;;;;;4868538;29;20664;-68
2022/06/22 14:06:14;;;;;;;1.33;0.60;;;34.50;60.30;;;;;;4859214;29;20461;-68
2022/06/22 14:08:56;;;;;;;1.33;0.50;;;34.80;58.60;;;;;;4871691;29;20329;-68